Garrison, KY (41141)

1:30 AM EDT on November 01, 2014 (GMT -0400)
Edge of Appalachia Preserve | Change Station
CLOSE
Current Station
Personal Weather Station
Location: West Union, OH
Elevation: 663 ft
Nearby Weather Stations
Active Advisory: Freeze Warning, Freeze Watch

Elev 663 ft 38.76 °N, 83.46 °W | Updated 1 second ago

Rain
Rain
36.5 °F
Feels Like 36 °F
N
1.8
Wind Variable Wind from SE
Gusts 2.5 mph

Today
High -- | Low -- °F
--% Chance of Precip.
Yesterday
High -- | Low -- °F
Precip. -- in
7:59 AM 6:32 PM
Waxing Gibbous, 63% visible
Pressure 29.91 in
Visibility 4.0 miles
Clouds Overcast 1000 ft
Windchill 36 °F
Dew Point 35 °F
Humidity 94%
Rainfall 0.00 in
Snow Depth Not available.
UV 0 out of 12
Pollen .10 out of 12
Air Quality Not available.
Flu Activity Not available.
METAR KHTS 010451Z 30006KT 4SM -RA BR OVC010 03/02 A2989 RMK AO2 SLP126 P0002 T00280022 400890017

More Conditions Fewer Conditions

Pressure 29.91 in
Visibility 4.0 miles
Clouds Overcast 1000 ft
Windchill 36 °F
Dew Point 35 °F
Humidity 94%
Rainfall 0.00 in
Snow Depth Not available.
UV 0 out of 12
Pollen .10 out of 12
Air Quality Not available.
Flu Activity Not available.
METAR KHTS 010451Z 30006KT 4SM -RA BR OVC010 03/02 A2989 RMK AO2 SLP126 P0002 T00280022 400890017

More Conditions Fewer Conditions

10-Day Weather Forecast

Almanac

Astronomy

Nov. 01, 2014 Rise Set
Actual Time
Civil Twilight
Nautical Twilight
Astronomical Twilight
Moon
Length of Visible Light
Length of Day
Tomorrow will be .
, % of the Moon is Illuminated

Today's Extremes

State Highs State Lows

Community

WunderPhotos

Upload Photos

1,766,859 photos uploaded!

WunderBlogs® & News

Nearby

Air Quality

  Air Quality AQ Index Pollutant
Not available.

Snow Depth

Station Depth Elevation

Earthquake Activity

City Distance Mag. Time & Date
Minimum magnitude displayed is 2.5.

Coastal Water Temperatures

Place Temperature

Nearby Weather Stations